Time;durP1;ratioP1;P1;durP2;ratioP2;P2;SDS_P1;SDS_P2;PMS_P1;PMS_P2;Temp;Humidity;BMP_temperature;BMP_pressure;BME280_temperature;BME280_humidity;BME280_pressure;Samples;Min_cycle;Max_cycle;Signal;HPM_P1;HPM_P2
2022/09/19 00:01:48;;;;;;;18.33;2.63;;;;;;;;;;6159019;23;20025;-72
2022/09/19 00:04:16;;;;;;;10.43;2.00;;;;;;;;;;6159922;23;20030;-72
2022/09/19 00:06:43;;;;;;;14.10;2.22;;;;;;;;;;6159746;23;20907;-72
2022/09/19 00:09:11;;;;;;;9.85;2.13;;;;;;;;;;6159687;23;20519;-72
2022/09/19 00:11:39;;;;;;;17.95;2.00;;;;;;;;;;6159499;23;20085;-72
2022/09/19 00:14:05;;;;;;;14.13;2.92;;;;;;;;;;6159251;23;20034;-73
2022/09/19 00:16:33;;;;;;;13.35;2.33;;;;;;;;;;6160024;23;20030;-73
2022/09/19 00:19:00;;;;;;;7.95;1.48;;;;;;;;;;6159680;23;20562;-73
2022/09/19 00:21:28;;;;;;;8.07;1.60;;;;;;;;;;6159274;23;20503;-73
2022/09/19 00:26:40;;;;;;;10.55;2.20;;;;;;;;;;6159634;23;20085;-73
2022/09/19 00:29:08;;;;;;;7.95;1.40;;;;;;;;;;6159708;23;20029;-74
2022/09/19 00:31:35;;;;;;;10.68;2.40;;;;;;;;;;6158660;23;20025;-74
2022/09/19 00:34:06;;;;;;;7.00;1.52;;;;;;;;;;6159016;23;20041;-73
2022/09/19 00:36:33;;;;;;;8.40;2.08;;;;;;;;;;6159497;23;20030;-72
2022/09/19 00:39:00;;;;;;;9.05;2.03;;;;;;;;;;6159437;23;20026;-73
2022/09/19 00:41:26;;;;;;;10.25;1.42;;;;;;;;;;6159579;23;20030;-72
2022/09/19 00:43:55;;;;;;;12.73;1.92;;;;;;;;;;6159691;23;20101;-72
2022/09/19 00:46:22;;;;;;;11.27;2.65;;;;;;;;;;6160233;23;20030;-73
2022/09/19 00:49:14;;;;;;;10.80;2.10;;;;;;;;;;6158895;23;20022;-72
2022/09/19 00:51:43;;;;;;;10.60;2.78;;;;;;;;;;6154710;23;20025;-73
2022/09/19 00:54:13;;;;;;;9.38;1.40;;;;;;;;;;6159416;23;20037;-73
2022/09/19 00:56:41;;;;;;;11.40;2.95;;;;;;;;;;6159722;23;20034;-73
2022/09/19 00:59:08;;;;;;;7.40;1.70;;;;;;;;;;6159641;23;20037;-72
2022/09/19 01:01:34;;;;;;;8.55;1.45;;;;;;;;;;6157741;23;20066;-73
2022/09/19 01:04:01;;;;;;;11.48;1.85;;;;;;;;;;6159352;23;20030;-73
2022/09/19 01:06:39;;;;;;;8.75;1.52;;;;;;;;;;6159517;23;20030;-73
2022/09/19 01:09:14;;;;;;;6.43;1.50;;;;;;;;;;6159999;23;20085;-73
2022/09/19 01:11:56;;;;;;;10.45;1.38;;;;;;;;;;6157964;23;20030;-73
2022/09/19 01:14:31;;;;;;;7.53;1.10;;;;;;;;;;6159118;23;20034;-72
2022/09/19 01:17:19;;;;;;;9.13;2.55;;;;;;;;;;6159528;23;20033;-73
2022/09/19 01:20:04;;;;;;;7.00;1.45;;;;;;;;;;6158983;23;20018;-73
2022/09/19 01:22:49;;;;;;;11.37;2.07;;;;;;;;;;6159171;23;20034;-72
2022/09/19 01:25:18;;;;;;;5.97;1.73;;;;;;;;;;6158758;23;20033;-73
2022/09/19 01:27:48;;;;;;;6.45;2.58;;;;;;;;;;6159052;23;20088;-72
2022/09/19 01:30:15;;;;;;;7.80;1.30;;;;;;;;;;6158870;23;20037;-72
2022/09/19 01:32:47;;;;;;;9.73;1.58;;;;;;;;;;6158820;23;20463;-73
2022/09/19 01:35:15;;;;;;;3.75;1.38;;;;;;;;;;6158908;23;20089;-73
2022/09/19 01:37:50;;;;;;;7.05;1.83;;;;;;;;;;6158612;23;20030;-73
2022/09/19 01:40:17;;;;;;;8.13;1.63;;;;;;;;;;6159489;23;20030;-74
2022/09/19 01:42:55;;;;;;;13.10;2.95;;;;;;;;;;6158819;23;20034;-73
2022/09/19 01:45:30;;;;;;;7.30;1.52;;;;;;;;;;6159313;23;20034;-73
2022/09/19 01:48:16;;;;;;;12.18;1.70;;;;;;;;;;6158835;23;20167;-73
2022/09/19 01:50:53;;;;;;;6.63;1.92;;;;;;;;;;6158543;23;20030;-73
2022/09/19 01:53:19;;;;;;;9.63;1.55;;;;;;;;;;6157615;23;20030;-73
2022/09/19 01:56:12;;;;;;;10.30;2.40;;;;;;;;;;6159108;23;20026;-72
2022/09/19 01:58:56;;;;;;;6.70;1.42;;;;;;;;;;6124207;23;20026;-73
2022/09/19 02:01:32;;;;;;;11.40;1.45;;;;;;;;;;6159374;23;20022;-73
2022/09/19 02:04:03;;;;;;;8.70;2.13;;;;;;;;;;6158596;23;20456;-72
2022/09/19 02:06:46;;;;;;;14.93;2.00;;;;;;;;;;6159263;23;20022;-73
2022/09/19 02:09:22;;;;;;;9.93;1.80;;;;;;;;;;6157609;23;20085;-73
2022/09/19 02:11:51;;;;;;;5.82;1.40;;;;;;;;;;6158673;23;20034;-73
2022/09/19 02:14:19;;;;;;;12.40;1.40;;;;;;;;;;6159438;23;20404;-73
2022/09/19 02:16:51;;;;;;;10.13;1.83;;;;;;;;;;6160100;23;20034;-73
2022/09/19 02:19:20;;;;;;;8.13;1.90;;;;;;;;;;6160278;23;20085;-74
2022/09/19 02:21:51;;;;;;;9.95;1.60;;;;;;;;;;6160410;23;20530;-73
2022/09/19 02:24:19;;;;;;;8.00;1.73;;;;;;;;;;6160071;23;20341;-74
2022/09/19 02:26:51;;;;;;;6.57;2.13;;;;;;;;;;6160245;23;20026;-74
2022/09/19 02:29:20;;;;;;;8.10;1.77;;;;;;;;;;6160216;23;20097;-73
2022/09/19 02:31:46;;;;;;;8.35;1.25;;;;;;;;;;6158395;23;20026;-73
2022/09/19 02:34:13;;;;;;;6.78;1.85;;;;;;;;;;6160947;23;20030;-74
2022/09/19 02:36:39;;;;;;;10.05;2.42;;;;;;;;;;6160467;23;20025;-73
2022/09/19 02:39:08;;;;;;;14.18;1.92;;;;;;;;;;6160790;23;20048;-74
2022/09/19 02:41:40;;;;;;;9.25;2.42;;;;;;;;;;6159682;23;20030;-74
2022/09/19 02:44:19;;;;;;;10.27;2.55;;;;;;;;;;6158704;23;20030;-73
2022/09/19 02:46:47;;;;;;;6.05;1.48;;;;;;;;;;6160708;23;20372;-72
2022/09/19 02:49:16;;;;;;;7.90;1.80;;;;;;;;;;6160706;23;20131;-73
2022/09/19 02:51:47;;;;;;;8.80;1.75;;;;;;;;;;6160509;23;20491;-73
2022/09/19 02:54:18;;;;;;;3.92;1.67;;;;;;;;;;6160276;23;20030;-74
2022/09/19 02:56:45;;;;;;;4.82;1.42;;;;;;;;;;6160710;23;20030;-73
2022/09/19 02:59:13;;;;;;;10.80;1.88;;;;;;;;;;6160307;23;20034;-73
2022/09/19 03:01:41;;;;;;;15.50;1.80;;;;;;;;;;6160678;23;20030;-73
2022/09/19 03:04:14;;;;;;;11.68;1.70;;;;;;;;;;6160161;23;20049;-73
2022/09/19 03:06:49;;;;;;;10.10;1.33;;;;;;;;;;6159886;23;20085;-74
2022/09/19 03:09:17;;;;;;;8.73;2.08;;;;;;;;;;6159993;23;20030;-74
2022/09/19 03:11:52;;;;;;;11.60;2.10;;;;;;;;;;6159381;23;20034;-73
2022/09/19 03:14:18;;;;;;;10.85;1.92;;;;;;;;;;6159982;23;20085;-73
2022/09/19 03:16:47;;;;;;;6.60;1.33;;;;;;;;;;6160706;23;20026;-73
2022/09/19 03:19:13;;;;;;;18.38;2.53;;;;;;;;;;6160203;23;20037;-74
2022/09/19 03:21:43;;;;;;;8.50;1.55;;;;;;;;;;6160292;23;20081;-74
2022/09/19 03:24:10;;;;;;;11.50;1.40;;;;;;;;;;6160299;23;20041;-74
2022/09/19 03:26:37;;;;;;;5.00;1.95;;;;;;;;;;6159714;23;20026;-73
2022/09/19 03:29:05;;;;;;;8.63;1.73;;;;;;;;;;6160558;23;20030;-74
2022/09/19 03:31:31;;;;;;;12.98;2.67;;;;;;;;;;6160112;23;20085;-74
2022/09/19 03:33:58;;;;;;;9.43;1.55;;;;;;;;;;6159800;23;20113;-74
2022/09/19 03:36:25;;;;;;;11.02;1.45;;;;;;;;;;6159962;23;20037;-74
2022/09/19 03:38:52;;;;;;;7.60;1.63;;;;;;;;;;6159553;23;20037;-74
2022/09/19 03:41:19;;;;;;;8.23;1.60;;;;;;;;;;6160091;23;20468;-74
2022/09/19 03:43:46;;;;;;;10.30;1.70;;;;;;;;;;6160611;23;20034;-74
2022/09/19 03:46:13;;;;;;;9.88;1.85;;;;;;;;;;6160180;23;20026;-74
2022/09/19 03:48:40;;;;;;;8.93;1.40;;;;;;;;;;6159817;23;20085;-75
2022/09/19 03:51:07;;;;;;;6.93;2.10;;;;;;;;;;6160132;23;20033;-73
2022/09/19 03:53:33;;;;;;;11.90;1.92;;;;;;;;;;6160109;23;20026;-73
2022/09/19 03:56:00;;;;;;;6.72;1.30;;;;;;;;;;6159269;23;20101;-74
2022/09/19 03:58:26;;;;;;;6.47;1.25;;;;;;;;;;6159020;23;20030;-74
2022/09/19 04:00:53;;;;;;;14.95;1.90;;;;;;;;;;6158600;23;20037;-74
2022/09/19 04:03:23;;;;;;;7.88;1.83;;;;;;;;;;6160254;23;20080;-73
2022/09/19 04:05:51;;;;;;;4.75;1.48;;;;;;;;;;6160052;23;20037;-74
2022/09/19 04:08:18;;;;;;;5.90;1.60;;;;;;;;;;6160150;23;20081;-73
2022/09/19 04:10:44;;;;;;;7.68;1.40;;;;;;;;;;6160093;23;20516;-74
2022/09/19 04:13:11;;;;;;;6.07;1.58;;;;;;;;;;6160191;23;20026;-73
2022/09/19 04:15:38;;;;;;;6.88;1.42;;;;;;;;;;6159956;23;20029;-73
2022/09/19 04:18:05;;;;;;;10.55;1.70;;;;;;;;;;6159983;23;20385;-74
2022/09/19 04:20:31;;;;;;;9.07;2.35;;;;;;;;;;6159844;23;20029;-73
2022/09/19 04:22:59;;;;;;;10.18;1.58;;;;;;;;;;6159988;23;20476;-73
2022/09/19 04:25:33;;;;;;;9.43;2.13;;;;;;;;;;6160113;23;20089;-74
2022/09/19 04:28:02;;;;;;;10.77;1.60;;;;;;;;;;6160557;23;20026;-74
2022/09/19 04:30:30;;;;;;;5.18;1.30;;;;;;;;;;6159569;23;20910;-73
2022/09/19 04:32:58;;;;;;;10.75;1.77;;;;;;;;;;6159851;23;20436;-74
2022/09/19 04:35:24;;;;;;;6.15;1.83;;;;;;;;;;6159957;23;20029;-73
2022/09/19 04:37:50;;;;;;;7.38;2.42;;;;;;;;;;6160186;23;20487;-73
2022/09/19 04:40:16;;;;;;;11.50;2.33;;;;;;;;;;6159756;23;20460;-73
2022/09/19 04:42:45;;;;;;;13.05;1.77;;;;;;;;;;6159817;23;20507;-74
2022/09/19 04:45:13;;;;;;;11.15;2.00;;;;;;;;;;6159404;23;20062;-73
2022/09/19 04:47:40;;;;;;;5.78;1.35;;;;;;;;;;6160140;23;20022;-73
2022/09/19 04:50:08;;;;;;;16.55;3.33;;;;;;;;;;6160266;23;20038;-74
2022/09/19 04:52:34;;;;;;;15.93;2.08;;;;;;;;;;6159654;23;20026;-73
2022/09/19 04:55:01;;;;;;;7.47;2.38;;;;;;;;;;6159930;23;20081;-73
2022/09/19 04:57:28;;;;;;;7.80;1.58;;;;;;;;;;6159925;23;20085;-73
2022/09/19 04:59:55;;;;;;;7.63;1.38;;;;;;;;;;6158170;23;20029;-73
2022/09/19 05:02:21;;;;;;;14.18;3.05;;;;;;;;;;6159202;23;20026;-73
2022/09/19 05:04:48;;;;;;;9.13;2.08;;;;;;;;;;6159671;23;20543;-73
2022/09/19 05:07:14;;;;;;;4.35;1.35;;;;;;;;;;6159649;23;20077;-74
2022/09/19 05:09:42;;;;;;;9.57;1.80;;;;;;;;;;6159438;23;20030;-73
2022/09/19 05:12:08;;;;;;;6.97;1.35;;;;;;;;;;6160244;23;20029;-74
2022/09/19 05:14:35;;;;;;;10.85;1.70;;;;;;;;;;6159686;23;20089;-73
2022/09/19 05:17:01;;;;;;;11.60;2.90;;;;;;;;;;6159379;23;20528;-74
2022/09/19 05:19:28;;;;;;;6.63;1.50;;;;;;;;;;6159775;23;20025;-73
2022/09/19 05:21:54;;;;;;;6.50;1.38;;;;;;;;;;6159629;23;20077;-73
2022/09/19 05:24:20;;;;;;;6.07;1.63;;;;;;;;;;6159657;23;20030;-73
2022/09/19 05:26:46;;;;;;;9.00;1.48;;;;;;;;;;6159322;23;20030;-75
2022/09/19 05:29:13;;;;;;;5.65;1.48;;;;;;;;;;6156568;23;20026;-75
2022/09/19 05:31:40;;;;;;;7.03;1.95;;;;;;;;;;6158826;23;20041;-76
2022/09/19 05:34:06;;;;;;;5.00;1.38;;;;;;;;;;6159102;23;20491;-71
2022/09/19 05:36:32;;;;;;;12.23;1.50;;;;;;;;;;6157469;23;20037;-70
2022/09/19 05:38:59;;;;;;;6.45;1.23;;;;;;;;;;6157958;23;20086;-72
2022/09/19 05:41:25;;;;;;;6.22;1.48;;;;;;;;;;6158069;23;20490;-72
2022/09/19 05:43:52;;;;;;;6.85;2.30;;;;;;;;;;6157635;23;20081;-71
2022/09/19 05:46:20;;;;;;;9.80;2.90;;;;;;;;;;6157147;23;20030;-73
2022/09/19 05:48:47;;;;;;;7.72;2.40;;;;;;;;;;6157146;23;20085;-70
2022/09/19 05:51:14;;;;;;;19.88;3.70;;;;;;;;;;6157749;23;20034;-71
2022/09/19 05:53:52;;;;;;;14.13;2.20;;;;;;;;;;6158247;23;20033;-73
2022/09/19 05:56:20;;;;;;;15.40;2.38;;;;;;;;;;6158285;23;20033;-73
2022/09/19 05:58:47;;;;;;;8.18;1.63;;;;;;;;;;6157993;23;20030;-72
2022/09/19 06:01:13;;;;;;;8.18;2.40;;;;;;;;;;6156270;23;20542;-70
2022/09/19 06:03:40;;;;;;;11.52;1.92;;;;;;;;;;6157295;23;20487;-71
2022/09/19 06:06:11;;;;;;;8.70;2.65;;;;;;;;;;6158127;23;20033;-71
2022/09/19 06:08:39;;;;;;;9.93;1.90;;;;;;;;;;6157962;23;20068;-72
2022/09/19 06:11:06;;;;;;;9.18;2.05;;;;;;;;;;6159012;23;20062;-71
2022/09/19 06:16:18;;;;;;;6.72;2.08;;;;;;;;;;6158320;23;20037;-70
2022/09/19 06:18:45;;;;;;;10.60;2.13;;;;;;;;;;6157627;23;20510;-70
2022/09/19 06:21:12;;;;;;;11.68;2.30;;;;;;;;;;6158036;23;20030;-70
2022/09/19 06:23:39;;;;;;;9.73;2.20;;;;;;;;;;6158343;23;20077;-69
2022/09/19 06:26:06;;;;;;;10.52;2.15;;;;;;;;;;6158713;23;20920;-69
2022/09/19 06:28:32;;;;;;;9.60;2.22;;;;;;;;;;6158089;23;20030;-71
2022/09/19 06:31:01;;;;;;;8.85;1.95;;;;;;;;;;6156333;23;20085;-69
2022/09/19 06:33:27;;;;;;;13.10;2.55;;;;;;;;;;6157981;23;20033;-72
2022/09/19 06:35:58;;;;;;;6.40;1.92;;;;;;;;;;6157658;23;20026;-70
2022/09/19 06:38:25;;;;;;;8.43;2.55;;;;;;;;;;6156069;23;20034;-71
2022/09/19 06:40:51;;;;;;;9.13;1.70;;;;;;;;;;6158166;23;20037;-72
2022/09/19 06:43:26;;;;;;;6.03;1.75;;;;;;;;;;6158360;23;20416;-71
2022/09/19 06:45:52;;;;;;;10.57;1.90;;;;;;;;;;6158818;23;20092;-71
2022/09/19 06:48:19;;;;;;;7.68;1.55;;;;;;;;;;6132453;23;20053;-71
2022/09/19 06:50:46;;;;;;;8.25;1.45;;;;;;;;;;6158754;23;20026;-71
2022/09/19 06:53:13;;;;;;;6.75;1.83;;;;;;;;;;6158183;23;20030;-70
2022/09/19 06:55:40;;;;;;;8.55;1.60;;;;;;;;;;6158213;23;20030;-71
2022/09/19 06:58:12;;;;;;;8.95;2.22;;;;;;;;;;6158923;23;20036;-72
2022/09/19 07:00:40;;;;;;;12.00;2.28;;;;;;;;;;6157433;23;20436;-70
2022/09/19 07:03:12;;;;;;;14.85;2.33;;;;;;;;;;6158543;23;20416;-71
2022/09/19 07:05:42;;;;;;;6.82;1.48;;;;;;;;;;6158766;23;20983;-71
2022/09/19 07:08:08;;;;;;;5.82;2.13;;;;;;;;;;6158863;23;20026;-70
2022/09/19 07:10:36;;;;;;;5.47;1.20;;;;;;;;;;6158319;23;20034;-71
2022/09/19 07:13:04;;;;;;;13.52;1.85;;;;;;;;;;6157928;23;20057;-71
2022/09/19 07:15:31;;;;;;;11.23;1.70;;;;;;;;;;6158717;23;20033;-69
2022/09/19 07:17:57;;;;;;;9.23;1.67;;;;;;;;;;6158628;23;20356;-70
2022/09/19 07:20:24;;;;;;;3.75;1.00;;;;;;;;;;6159470;23;20025;-71
2022/09/19 07:23:04;;;;;;;9.85;1.50;;;;;;;;;;6159588;23;20038;-71
2022/09/19 07:25:37;;;;;;;12.57;1.77;;;;;;;;;;6158961;23;20053;-70
2022/09/19 07:28:05;;;;;;;4.88;1.33;;;;;;;;;;6158565;23;20030;-70
2022/09/19 07:30:33;;;;;;;7.28;0.90;;;;;;;;;;6157323;23;20896;-70
2022/09/19 07:33:03;;;;;;;7.72;1.20;;;;;;;;;;6158105;23;20030;-70
2022/09/19 07:35:30;;;;;;;5.78;1.10;;;;;;;;;;6158978;23;20030;-70
2022/09/19 07:38:01;;;;;;;5.00;1.08;;;;;;;;;;6158458;23;20058;-71
2022/09/19 07:40:28;;;;;;;4.30;1.05;;;;;;;;;;6157797;23;20033;-71
2022/09/19 07:42:58;;;;;;;3.55;1.08;;;;;;;;;;6158795;23;20484;-71
2022/09/19 07:45:25;;;;;;;5.55;1.35;;;;;;;;;;6159681;23;20490;-71
2022/09/19 07:47:51;;;;;;;3.60;0.98;;;;;;;;;;6159188;23;20026;-72
2022/09/19 07:50:18;;;;;;;7.40;1.60;;;;;;;;;;6159265;23;20424;-71
2022/09/19 07:52:48;;;;;;;5.32;1.40;;;;;;;;;;6159124;23;20034;-71
2022/09/19 07:55:14;;;;;;;10.18;1.13;;;;;;;;;;6158395;23;20539;-70
2022/09/19 07:57:50;;;;;;;7.05;1.70;;;;;;;;;;6158708;23;20132;-71
2022/09/19 08:00:17;;;;;;;3.00;1.02;;;;;;;;;;6157490;23;20030;-71
2022/09/19 08:02:43;;;;;;;8.63;1.02;;;;;;;;;;6157764;23;20085;-71
2022/09/19 08:05:10;;;;;;;3.28;0.95;;;;;;;;;;6158331;23;20057;-70
2022/09/19 08:07:36;;;;;;;5.53;1.00;;;;;;;;;;6158464;23;20030;-71
2022/09/19 08:10:07;;;;;;;9.20;1.10;;;;;;;;;;6158357;23;20040;-71
2022/09/19 08:12:34;;;;;;;7.32;1.40;;;;;;;;;;6158593;23;20033;-72
2022/09/19 08:15:01;;;;;;;6.82;1.00;;;;;;;;;;6158265;23;20077;-72
2022/09/19 08:17:27;;;;;;;6.20;1.45;;;;;;;;;;6157815;23;20030;-72
2022/09/19 08:19:55;;;;;;;7.38;1.10;;;;;;;;;;6158871;23;20030;-72
2022/09/19 08:22:21;;;;;;;11.07;1.58;;;;;;;;;;6159030;23;20464;-71
2022/09/19 08:24:48;;;;;;;4.88;1.45;;;;;;;;;;6158135;23;20029;-71
2022/09/19 08:27:14;;;;;;;9.52;1.38;;;;;;;;;;6158001;23;20037;-71
2022/09/19 08:29:40;;;;;;;11.07;1.70;;;;;;;;;;6158264;23;20081;-71
2022/09/19 08:32:06;;;;;;;14.88;1.90;;;;;;;;;;6156843;23;20026;-70
2022/09/19 08:34:33;;;;;;;10.55;1.10;;;;;;;;;;6157893;23;20029;-71
2022/09/19 08:37:00;;;;;;;7.20;1.90;;;;;;;;;;6157861;23;20034;-71
2022/09/19 08:39:27;;;;;;;4.82;1.13;;;;;;;;;;6157318;23;20467;-70
2022/09/19 08:41:53;;;;;;;6.07;1.17;;;;;;;;;;6158388;23;20468;-73
2022/09/19 08:44:28;;;;;;;2.80;0.85;;;;;;;;;;6158732;23;20495;-71
2022/09/19 08:47:17;;;;;;;6.40;1.58;;;;;;;;;;6159037;23;20029;-72
2022/09/19 08:49:50;;;;;;;10.18;1.85;;;;;;;;;;6158493;23;20491;-71
2022/09/19 08:52:26;;;;;;;3.03;0.93;;;;;;;;;;6157857;23;20033;-71
2022/09/19 08:54:53;;;;;;;4.85;1.30;;;;;;;;;;6157867;23;20032;-71
2022/09/19 08:57:25;;;;;;;5.05;1.40;;;;;;;;;;6157829;23;20038;-71
2022/09/19 08:59:54;;;;;;;7.18;1.33;;;;;;;;;;6158333;23;20052;-71
2022/09/19 09:02:40;;;;;;;3.28;1.05;;;;;;;;;;6156672;23;20590;-72
2022/09/19 09:05:34;;;;;;;18.88;2.15;;;;;;;;;;6157743;23;20506;-70
2022/09/19 09:08:09;;;;;;;5.63;1.30;;;;;;;;;;6156688;23;20404;-71
2022/09/19 09:10:35;;;;;;;6.20;1.27;;;;;;;;;;6158408;23;20029;-72
2022/09/19 09:13:01;;;;;;;10.48;2.03;;;;;;;;;;6158424;23;20033;-71
2022/09/19 09:15:46;;;;;;;7.70;1.45;;;;;;;;;;6157836;23;20030;-74
2022/09/19 09:18:21;;;;;;;3.28;1.13;;;;;;;;;;6158227;23;20145;-71
2022/09/19 09:20:58;;;;;;;5.97;1.20;;;;;;;;;;6158497;23;20085;-71
2022/09/19 09:23:30;;;;;;;3.85;1.23;;;;;;;;;;6158715;23;20918;-72
2022/09/19 09:26:00;;;;;;;4.55;1.02;;;;;;;;;;6158576;23;20042;-71
2022/09/19 09:28:38;;;;;;;4.75;0.82;;;;;;;;;;6159080;23;20037;-70
2022/09/19 09:31:15;;;;;;;5.45;1.10;;;;;;;;;;6157804;23;20026;-73
2022/09/19 09:34:02;;;;;;;5.30;1.30;;;;;;;;;;6158959;23;20022;-73
2022/09/19 09:36:33;;;;;;;6.72;1.00;;;;;;;;;;6159426;23;20022;-72
2022/09/19 09:39:05;;;;;;;5.57;1.02;;;;;;;;;;6158378;23;20034;-72
2022/09/19 09:41:45;;;;;;;19.10;2.67;;;;;;;;;;6158671;23;20064;-70
2022/09/19 09:44:30;;;;;;;3.08;0.80;;;;;;;;;;6157161;23;20085;-70
2022/09/19 09:47:19;;;;;;;5.70;0.80;;;;;;;;;;6159188;23;20048;-71
2022/09/19 09:49:46;;;;;;;4.68;1.08;;;;;;;;;;6159087;23;20030;-70
2022/09/19 09:52:31;;;;;;;8.07;1.50;;;;;;;;;;6158666;23;20026;-69
2022/09/19 09:58:12;;;;;;;7.07;1.58;;;;;;;;;;6159510;23;20037;-71
2022/09/19 10:03:48;;;;;;;7.28;1.30;;;;;;;;;;6158874;23;20405;-72
2022/09/19 10:06:29;;;;;;;8.82;1.10;;;;;;;;;;6158889;23;20084;-72
2022/09/19 10:09:04;;;;;;;3.70;1.50;;;;;;;;;;6158788;23;20034;-71
2022/09/19 10:11:45;;;;;;;2.92;0.88;;;;;;;;;;6158796;23;20037;-72
2022/09/19 10:14:33;;;;;;;3.67;0.95;;;;;;;;;;6157845;23;20018;-71
2022/09/19 10:17:01;;;;;;;8.60;1.13;;;;;;;;;;6158870;23;20034;-71
2022/09/19 10:19:33;;;;;;;4.85;1.10;;;;;;;;;;6158863;23;20947;-71
2022/09/19 10:21:59;;;;;;;8.65;1.00;;;;;;;;;;6159393;23;20034;-72
2022/09/19 10:24:45;;;;;;;1.67;0.73;;;;;;;;;;6159031;23;20033;-70
2022/09/19 10:27:13;;;;;;;;;;;;;;;;;;6159979;23;20033;-71
2022/09/19 10:29:53;;;;;;;2.88;0.70;;;;;;;;;;6157935;23;46209;-71
2022/09/19 10:32:22;;;;;;;1.70;0.70;;;;;;;;;;6157579;23;20030;-68
2022/09/19 10:34:50;;;;;;;2.38;0.68;;;;;;;;;;6159011;23;20025;-69
2022/09/19 10:37:20;;;;;;;0.77;0.50;;;;;;;;;;6158154;23;20040;-68
2022/09/19 10:39:48;;;;;;;1.23;0.57;;;;;;;;;;6158515;23;20025;-68
2022/09/19 10:42:26;;;;;;;2.40;0.50;;;;;;;;;;6158700;23;20026;-71
2022/09/19 10:44:54;;;;;;;1.75;0.60;;;;;;;;;;6158271;23;20072;-69
2022/09/19 10:47:20;;;;;;;1.35;0.47;;;;;;;;;;6157542;23;20085;-69
2022/09/19 10:49:47;;;;;;;2.92;0.55;;;;;;;;;;6158698;23;20026;-71
2022/09/19 10:52:24;;;;;;;2.13;0.80;;;;;;;;;;6158695;23;20030;-69
2022/09/19 10:55:20;;;;;;;3.92;0.60;;;;;;;;;;6158540;23;20029;-70
2022/09/19 10:57:49;;;;;;;4.13;1.05;;;;;;;;;;6159156;23;20392;-70
2022/09/19 11:00:26;;;;;;;2.85;0.95;;;;;;;;;;6159433;23;20030;-68
2022/09/19 11:02:54;;;;;;;2.33;0.52;;;;;;;;;;6158249;23;20438;-71
2022/09/19 11:05:29;;;;;;;2.40;0.60;;;;;;;;;;6158875;23;20033;-71
2022/09/19 11:07:59;;;;;;;6.80;1.48;;;;;;;;;;6159225;23;20494;-67
2022/09/19 11:10:30;;;;;;;6.32;0.70;;;;;;;;;;6157894;23;20030;-68
2022/09/19 11:13:04;;;;;;;3.05;0.77;;;;;;;;;;6158960;23;20037;-70
2022/09/19 11:15:31;;;;;;;6.33;0.93;;;;;;;;;;6158476;23;20084;-70
2022/09/19 11:18:12;;;;;;;5.63;0.85;;;;;;;;;;6157955;23;20038;-69
2022/09/19 11:20:44;;;;;;;3.60;0.70;;;;;;;;;;6158992;23;20026;-71
2022/09/19 11:23:30;;;;;;;3.55;0.65;;;;;;;;;;6157828;23;20085;-71
2022/09/19 11:26:15;;;;;;;4.65;0.75;;;;;;;;;;6157945;23;20070;-71
2022/09/19 11:28:57;;;;;;;2.33;0.75;;;;;;;;;;6157603;23;20037;-71
2022/09/19 11:31:26;;;;;;;0.73;0.50;;;;;;;;;;6159316;23;20033;-68
2022/09/19 11:34:28;;;;;;;2.88;1.02;;;;;;;;;;6158265;23;20085;-70
2022/09/19 11:37:30;;;;;;;1.85;1.25;;;;;;;;;;6158397;23;20030;-69
2022/09/19 11:40:21;;;;;;;2.40;0.82;;;;;;;;;;6157606;23;20483;-71
2022/09/19 11:42:48;;;;;;;1.35;0.65;;;;;;;;;;6157807;23;20084;-69
2022/09/19 11:45:18;;;;;;;2.63;0.50;;;;;;;;;;6155549;23;20029;-69
2022/09/19 11:47:50;;;;;;;2.80;0.70;;;;;;;;;;6158073;23;20464;-69
2022/09/19 11:50:41;;;;;;;2.95;0.82;;;;;;;;;;6157007;23;20026;-71
2022/09/19 11:53:29;;;;;;;3.45;0.70;;;;;;;;;;6158197;23;20053;-67
2022/09/19 11:56:14;;;;;;;3.45;0.90;;;;;;;;;;6158350;23;20930;-70
2022/09/19 11:58:58;;;;;;;1.92;0.55;;;;;;;;;;6157989;23;20033;-68
2022/09/19 12:01:43;;;;;;;2.20;0.63;;;;;;;;;;6156448;23;20041;-68
2022/09/19 12:04:23;;;;;;;3.53;0.90;;;;;;;;;;6156504;23;20057;-69
2022/09/19 12:07:00;;;;;;;4.28;0.63;;;;;;;;;;6158356;23;20245;-71
2022/09/19 12:09:30;;;;;;;3.97;0.90;;;;;;;;;;6158518;23;20106;-71
2022/09/19 12:12:11;;;;;;;5.45;0.90;;;;;;;;;;6158692;23;20036;-71
2022/09/19 12:14:42;;;;;;;4.88;1.15;;;;;;;;;;6157491;22;20030;-70
2022/09/19 12:17:13;;;;;;;4.55;1.05;;;;;;;;;;6158509;23;20906;-69
2022/09/19 12:19:49;;;;;;;5.20;0.93;;;;;;;;;;6158440;23;20036;-69
2022/09/19 12:22:20;;;;;;;7.00;0.90;;;;;;;;;;6157412;23;20393;-68
2022/09/19 12:24:52;;;;;;;5.22;0.75;;;;;;;;;;6156224;23;20302;-71
2022/09/19 12:27:33;;;;;;;5.88;1.17;;;;;;;;;;6158610;23;20030;-72
2022/09/19 12:30:02;;;;;;;;;;;;;;;;;;6158335;23;20034;-74
2022/09/19 12:32:47;;;;;;;3.42;0.75;;;;;;;;;;6155457;23;45298;-73
2022/09/19 12:35:18;;;;;;;3.10;1.05;;;;;;;;;;6157916;23;20515;-71
2022/09/19 12:37:54;;;;;;;2.25;0.88;;;;;;;;;;6157488;23;20072;-69
2022/09/19 12:40:30;;;;;;;3.25;0.88;;;;;;;;;;6157985;23;20030;-71
2022/09/19 12:43:18;;;;;;;2.35;0.70;;;;;;;;;;6157560;23;20034;-69
2022/09/19 12:45:53;;;;;;;3.65;0.50;;;;;;;;;;6158138;23;20380;-69
2022/09/19 12:48:36;;;;;;;2.60;0.85;;;;;;;;;;6156872;23;20032;-69
2022/09/19 12:51:05;;;;;;;2.75;0.82;;;;;;;;;;6155975;23;20037;-68
2022/09/19 12:53:38;;;;;;;4.68;1.20;;;;;;;;;;6158000;23;20022;-68
2022/09/19 12:56:13;;;;;;;2.13;0.60;;;;;;;;;;6156913;23;20061;-69
2022/09/19 12:58:45;;;;;;;3.13;1.33;;;;;;;;;;6157398;23;20029;-68
2022/09/19 13:01:21;;;;;;;8.30;1.77;;;;;;;;;;6155539;23;20030;-68
2022/09/19 13:03:54;;;;;;;2.90;0.75;;;;;;;;;;6157493;23;20036;-69
2022/09/19 13:06:22;;;;;;;3.47;0.88;;;;;;;;;;6157119;23;20045;-68
2022/09/19 13:08:57;;;;;;;2.88;0.90;;;;;;;;;;6158309;23;20077;-68
2022/09/19 13:11:26;;;;;;;1.13;0.60;;;;;;;;;;6157152;23;20034;-68
2022/09/19 13:14:16;;;;;;;1.90;0.70;;;;;;;;;;6156035;23;20716;-68
2022/09/19 13:24:47;;;;;;;4.15;0.85;;;;;;;;;;6156612;23;20568;-70
2022/09/19 13:27:14;;;;;;;3.38;0.90;;;;;;;;;;6157266;23;20030;-69
2022/09/19 13:29:43;;;;;;;3.08;0.82;;;;;;;;;;6156790;23;20400;-70
2022/09/19 13:32:25;;;;;;;2.85;0.90;;;;;;;;;;6156508;23;20041;-71
2022/09/19 13:35:04;;;;;;;1.98;0.68;;;;;;;;;;6156939;23;20038;-70
2022/09/19 13:37:51;;;;;;;6.80;0.55;;;;;;;;;;6157906;23;20081;-70
2022/09/19 13:40:18;;;;;;;2.17;0.70;;;;;;;;;;6156827;23;20030;-70
2022/09/19 13:43:10;;;;;;;3.10;0.80;;;;;;;;;;6158164;23;20033;-69
2022/09/19 13:45:41;;;;;;;3.85;0.77;;;;;;;;;;6157945;23;20030;-68
2022/09/19 13:48:31;;;;;;;1.13;0.65;;;;;;;;;;6157734;23;20041;-69
2022/09/19 13:51:06;;;;;;;3.60;0.80;;;;;;;;;;6157705;23;20034;-68
2022/09/19 13:53:44;;;;;;;2.38;0.90;;;;;;;;;;6157520;23;20034;-69
2022/09/19 13:56:26;;;;;;;3.40;0.98;;;;;;;;;;6157550;23;20037;-68
2022/09/19 13:59:12;;;;;;;5.75;1.15;;;;;;;;;;6156619;23;20460;-69
2022/09/19 14:01:40;;;;;;;3.33;0.93;;;;;;;;;;6156597;23;20034;-69
2022/09/19 14:06:59;;;;;;;10.43;1.20;;;;;;;;;;6156183;23;20033;-69
2022/09/19 14:09:49;;;;;;;3.20;0.60;;;;;;;;;;6157840;23;20026;-69
2022/09/19 14:12:37;;;;;;;3.85;0.70;;;;;;;;;;6158273;23;20053;-68
2022/09/19 14:15:24;;;;;;;2.25;0.73;;;;;;;;;;6159086;23;20085;-68
2022/09/19 14:18:09;;;;;;;3.40;0.73;;;;;;;;;;6158125;23;20029;-67
2022/09/19 14:20:45;;;;;;;5.13;1.42;;;;;;;;;;6157826;23;20464;-68
2022/09/19 14:23:12;;;;;;;2.85;1.00;;;;;;;;;;6157673;23;20030;-68
2022/09/19 14:25:38;;;;;;;7.78;1.58;;;;;;;;;;6158559;23;20073;-68
2022/09/19 14:28:16;;;;;;;4.93;0.90;;;;;;;;;;6156770;23;20025;-67
2022/09/19 14:30:51;;;;;;;8.23;1.10;;;;;;;;;;6155360;23;20089;-67
2022/09/19 14:33:21;;;;;;;7.93;1.30;;;;;;;;;;6157662;23;20026;-67
2022/09/19 14:35:50;;;;;;;5.10;1.02;;;;;;;;;;6158037;23;20025;-68
2022/09/19 14:38:18;;;;;;;5.75;1.30;;;;;;;;;;6156733;23;20030;-69
2022/09/19 14:40:44;;;;;;;6.32;1.58;;;;;;;;;;6158517;23;20030;-68
2022/09/19 14:43:13;;;;;;;4.07;0.93;;;;;;;;;;6158064;23;20522;-67
2022/09/19 14:45:50;;;;;;;11.15;1.83;;;;;;;;;;6157011;23;20081;-69
2022/09/19 14:48:33;;;;;;;7.22;1.40;;;;;;;;;;6158567;23;20510;-68
2022/09/19 14:51:19;;;;;;;6.15;2.88;;;;;;;;;;6156638;23;20030;-68
2022/09/19 14:53:47;;;;;;;6.25;1.05;;;;;;;;;;6157954;23;20439;-69
2022/09/19 14:56:15;;;;;;;7.40;1.98;;;;;;;;;;6158113;23;20034;-69
2022/09/19 14:58:49;;;;;;;8.98;2.13;;;;;;;;;;6157956;23;20487;-70
2022/09/19 15:01:20;;;;;;;9.30;2.17;;;;;;;;;;6156418;23;20026;-70
2022/09/19 15:04:00;;;;;;;9.07;1.65;;;;;;;;;;6157581;23;20864;-69
2022/09/19 15:06:34;;;;;;;9.10;1.52;;;;;;;;;;6158556;23;20036;-70
2022/09/19 15:09:01;;;;;;;13.73;1.58;;;;;;;;;;6158318;23;20538;-70
2022/09/19 15:11:29;;;;;;;7.43;1.48;;;;;;;;;;6158762;23;20026;-70
2022/09/19 15:13:56;;;;;;;11.32;2.03;;;;;;;;;;6158784;23;20084;-71
2022/09/19 15:16:23;;;;;;;6.97;1.48;;;;;;;;;;6158819;23;20498;-68
2022/09/19 15:18:56;;;;;;;11.02;1.67;;;;;;;;;;6158540;23;20034;-70
2022/09/19 15:21:27;;;;;;;7.65;1.42;;;;;;;;;;6157417;23;20033;-70
2022/09/19 15:23:58;;;;;;;6.72;1.70;;;;;;;;;;6157697;23;20483;-67
2022/09/19 15:26:27;;;;;;;8.55;1.38;;;;;;;;;;6158145;23;20034;-70
2022/09/19 15:28:57;;;;;;;11.18;2.17;;;;;;;;;;6158322;23;20085;-71
2022/09/19 15:31:25;;;;;;;10.82;1.60;;;;;;;;;;6155954;23;20109;-71